sensor_id;sensor_type;location;lat;lon;timestamp;temperature;humidity
8422;DHT22;4248;48.196;10.924;2023-02-01T00:01:40;4.30;53.70
8422;DHT22;4248;48.196;10.924;2023-02-01T00:04:06;4.30;53.80
8422;DHT22;4248;48.196;10.924;2023-02-01T00:06:32;4.20;53.60
8422;DHT22;4248;48.196;10.924;2023-02-01T00:08:57;4.30;54.10
8422;DHT22;4248;48.196;10.924;2023-02-01T00:11:23;4.20;54.60
8422;DHT22;4248;48.196;10.924;2023-02-01T00:13:50;4.20;55.00
8422;DHT22;4248;48.196;10.924;2023-02-01T00:16:22;4.10;55.10
8422;DHT22;4248;48.196;10.924;2023-02-01T00:18:50;4.20;55.10
8422;DHT22;4248;48.196;10.924;2023-02-01T00:21:20;4.20;54.70
8422;DHT22;4248;48.196;10.924;2023-02-01T00:23:46;4.30;54.80
8422;DHT22;4248;48.196;10.924;2023-02-01T00:26:18;4.30;54.90
8422;DHT22;4248;48.196;10.924;2023-02-01T00:28:44;4.30;54.60
8422;DHT22;4248;48.196;10.924;2023-02-01T00:31:10;4.30;54.40
8422;DHT22;4248;48.196;10.924;2023-02-01T00:33:36;4.30;54.50
8422;DHT22;4248;48.196;10.924;2023-02-01T00:36:06;4.30;54.60
8422;DHT22;4248;48.196;10.924;2023-02-01T00:38:34;4.30;54.70
8422;DHT22;4248;48.196;10.924;2023-02-01T00:41:13;4.30;54.80
8422;DHT22;4248;48.196;10.924;2023-02-01T00:43:39;4.30;55.00
8422;DHT22;4248;48.196;10.924;2023-02-01T00:46:05;4.30;55.00
8422;DHT22;4248;48.196;10.924;2023-02-01T00:48:31;4.30;55.00
8422;DHT22;4248;48.196;10.924;2023-02-01T00:51:04;4.30;55.00
8422;DHT22;4248;48.196;10.924;2023-02-01T00:53:30;4.30;55.10
8422;DHT22;4248;48.196;10.924;2023-02-01T00:55:56;4.30;55.10
8422;DHT22;4248;48.196;10.924;2023-02-01T00:58:23;4.20;55.10
8422;DHT22;4248;48.196;10.924;2023-02-01T01:01:11;4.20;55.20
8422;DHT22;4248;48.196;10.924;2023-02-01T01:03:40;4.20;55.50
8422;DHT22;4248;48.196;10.924;2023-02-01T01:06:12;4.10;55.80
8422;DHT22;4248;48.196;10.924;2023-02-01T01:08:38;4.10;56.00
8422;DHT22;4248;48.196;10.924;2023-02-01T01:11:09;4.00;55.90
8422;DHT22;4248;48.196;10.924;2023-02-01T01:13:36;4.00;56.20
8422;DHT22;4248;48.196;10.924;2023-02-01T01:16:03;3.90;56.50
8422;DHT22;4248;48.196;10.924;2023-02-01T01:18:30;3.90;56.60
8422;DHT22;4248;48.196;10.924;2023-02-01T01:20:56;3.80;56.90
8422;DHT22;4248;48.196;10.924;2023-02-01T01:23:22;3.80;57.00
8422;DHT22;4248;48.196;10.924;2023-02-01T01:25:47;3.80;57.20
8422;DHT22;4248;48.196;10.924;2023-02-01T01:28:13;3.80;58.40
8422;DHT22;4248;48.196;10.924;2023-02-01T01:30:39;3.70;57.40
8422;DHT22;4248;48.196;10.924;2023-02-01T01:33:04;3.70;57.70
8422;DHT22;4248;48.196;10.924;2023-02-01T01:35:31;3.70;57.80
8422;DHT22;4248;48.196;10.924;2023-02-01T01:37:58;3.80;58.00
8422;DHT22;4248;48.196;10.924;2023-02-01T01:40:24;3.70;57.80
8422;DHT22;4248;48.196;10.924;2023-02-01T01:42:50;3.70;58.00
8422;DHT22;4248;48.196;10.924;2023-02-01T01:47:54;3.50;58.90
8422;DHT22;4248;48.196;10.924;2023-02-01T01:50:28;3.40;59.40
8422;DHT22;4248;48.196;10.924;2023-02-01T01:52:56;3.30;59.70
8422;DHT22;4248;48.196;10.924;2023-02-01T01:55:24;3.20;59.90
8422;DHT22;4248;48.196;10.924;2023-02-01T01:57:56;3.10;60.40
8422;DHT22;4248;48.196;10.924;2023-02-01T02:00:22;3.00;61.20
8422;DHT22;4248;48.196;10.924;2023-02-01T02:03:07;2.90;61.40
8422;DHT22;4248;48.196;10.924;2023-02-01T02:05:35;2.90;61.60
8422;DHT22;4248;48.196;10.924;2023-02-01T02:08:00;2.90;61.70
8422;DHT22;4248;48.196;10.924;2023-02-01T02:10:26;2.90;61.70
8422;DHT22;4248;48.196;10.924;2023-02-01T02:13:14;3.00;61.50
8422;DHT22;4248;48.196;10.924;2023-02-01T02:15:50;3.10;61.10
8422;DHT22;4248;48.196;10.924;2023-02-01T02:21:42;3.30;60.40
8422;DHT22;4248;48.196;10.924;2023-02-01T02:32:47;3.50;60.30
8422;DHT22;4248;48.196;10.924;2023-02-01T02:35:49;3.50;60.30
8422;DHT22;4248;48.196;10.924;2023-02-01T02:39:03;3.50;60.30
8422;DHT22;4248;48.196;10.924;2023-02-01T02:41:18;3.60;60.40
8422;DHT22;4248;48.196;10.924;2023-02-01T02:44:13;3.60;60.20
8422;DHT22;4248;48.196;10.924;2023-02-01T02:47:03;3.70;60.20
8422;DHT22;4248;48.196;10.924;2023-02-01T02:50:26;3.70;60.10
8422;DHT22;4248;48.196;10.924;2023-02-01T02:53:32;3.70;60.30
8422;DHT22;4248;48.196;10.924;2023-02-01T02:56:20;3.60;60.70
8422;DHT22;4248;48.196;10.924;2023-02-01T02:59:07;3.50;61.00
8422;DHT22;4248;48.196;10.924;2023-02-01T03:01:53;3.50;61.30
8422;DHT22;4248;48.196;10.924;2023-02-01T03:04:38;3.50;61.50
8422;DHT22;4248;48.196;10.924;2023-02-01T03:07:45;3.50;61.50
8422;DHT22;4248;48.196;10.924;2023-02-01T03:10:04;3.50;61.40
8422;DHT22;4248;48.196;10.924;2023-02-01T03:12:33;3.50;61.30
8422;DHT22;4248;48.196;10.924;2023-02-01T03:15:26;3.50;61.50
8422;DHT22;4248;48.196;10.924;2023-02-01T03:17:58;3.50;62.60
8422;DHT22;4248;48.196;10.924;2023-02-01T03:20:25;3.50;61.30
8422;DHT22;4248;48.196;10.924;2023-02-01T03:22:53;3.50;61.20
8422;DHT22;4248;48.196;10.924;2023-02-01T03:25:27;3.60;61.30
8422;DHT22;4248;48.196;10.924;2023-02-01T03:28:07;3.60;61.30
8422;DHT22;4248;48.196;10.924;2023-02-01T03:30:38;3.60;61.20
8422;DHT22;4248;48.196;10.924;2023-02-01T03:33:09;3.60;61.20
8422;DHT22;4248;48.196;10.924;2023-02-01T03:38:59;3.70;61.10
8422;DHT22;4248;48.196;10.924;2023-02-01T03:41:41;3.70;61.00
8422;DHT22;4248;48.196;10.924;2023-02-01T03:44:21;3.80;60.70
8422;DHT22;4248;48.196;10.924;2023-02-01T03:49:36;3.80;60.30
8422;DHT22;4248;48.196;10.924;2023-02-01T03:52:05;3.90;60.20
8422;DHT22;4248;48.196;10.924;2023-02-01T03:54:32;3.90;60.20
8422;DHT22;4248;48.196;10.924;2023-02-01T03:57:02;3.90;60.20
8422;DHT22;4248;48.196;10.924;2023-02-01T03:59:30;3.90;60.20
8422;DHT22;4248;48.196;10.924;2023-02-01T04:01:55;3.90;60.40
8422;DHT22;4248;48.196;10.924;2023-02-01T04:04:21;3.90;61.40
8422;DHT22;4248;48.196;10.924;2023-02-01T04:06:50;3.90;60.10
8422;DHT22;4248;48.196;10.924;2023-02-01T04:09:16;3.90;60.20
8422;DHT22;4248;48.196;10.924;2023-02-01T04:11:42;3.90;60.10
8422;DHT22;4248;48.196;10.924;2023-02-01T04:14:08;3.90;60.20
8422;DHT22;4248;48.196;10.924;2023-02-01T04:16:34;3.90;60.10
8422;DHT22;4248;48.196;10.924;2023-02-01T04:19:00;3.90;60.10
8422;DHT22;4248;48.196;10.924;2023-02-01T04:21:26;4.00;60.20
8422;DHT22;4248;48.196;10.924;2023-02-01T04:23:52;4.00;60.20
8422;DHT22;4248;48.196;10.924;2023-02-01T04:26:18;4.10;60.40
8422;DHT22;4248;48.196;10.924;2023-02-01T04:28:45;4.10;60.30
8422;DHT22;4248;48.196;10.924;2023-02-01T04:31:13;4.10;60.30
8422;DHT22;4248;48.196;10.924;2023-02-01T04:33:39;4.10;60.40
8422;DHT22;4248;48.196;10.924;2023-02-01T04:36:05;4.10;60.30
8422;DHT22;4248;48.196;10.924;2023-02-01T04:38:30;4.10;61.50
8422;DHT22;4248;48.196;10.924;2023-02-01T04:40:57;4.10;60.40
8422;DHT22;4248;48.196;10.924;2023-02-01T04:43:23;4.10;60.30
8422;DHT22;4248;48.196;10.924;2023-02-01T04:45:49;4.10;60.30
8422;DHT22;4248;48.196;10.924;2023-02-01T04:48:16;4.10;60.30
8422;DHT22;4248;48.196;10.924;2023-02-01T04:50:43;4.10;60.30
8422;DHT22;4248;48.196;10.924;2023-02-01T04:53:11;4.10;60.30
8422;DHT22;4248;48.196;10.924;2023-02-01T04:55:36;4.10;60.30
8422;DHT22;4248;48.196;10.924;2023-02-01T04:58:02;4.10;60.40
8422;DHT22;4248;48.196;10.924;2023-02-01T05:00:28;4.10;60.30
8422;DHT22;4248;48.196;10.924;2023-02-01T05:02:53;4.10;60.40
8422;DHT22;4248;48.196;10.924;2023-02-01T05:05:19;4.10;60.30
8422;DHT22;4248;48.196;10.924;2023-02-01T05:07:46;4.10;60.30
8422;DHT22;4248;48.196;10.924;2023-02-01T05:10:12;4.10;60.30
8422;DHT22;4248;48.196;10.924;2023-02-01T05:12:37;4.10;59.20
8422;DHT22;4248;48.196;10.924;2023-02-01T05:15:22;4.10;60.10
8422;DHT22;4248;48.196;10.924;2023-02-01T05:17:47;4.10;60.30
8422;DHT22;4248;48.196;10.924;2023-02-01T05:20:13;4.10;60.30
8422;DHT22;4248;48.196;10.924;2023-02-01T05:22:39;4.10;60.20
8422;DHT22;4248;48.196;10.924;2023-02-01T05:25:06;4.10;60.10
8422;DHT22;4248;48.196;10.924;2023-02-01T05:27:32;4.10;60.00
8422;DHT22;4248;48.196;10.924;2023-02-01T05:29:57;4.10;59.90
8422;DHT22;4248;48.196;10.924;2023-02-01T05:32:23;4.10;59.90
8422;DHT22;4248;48.196;10.924;2023-02-01T05:34:48;4.10;60.00
8422;DHT22;4248;48.196;10.924;2023-02-01T05:37:14;4.00;60.00
8422;DHT22;4248;48.196;10.924;2023-02-01T05:39:40;4.00;60.20
8422;DHT22;4248;48.196;10.924;2023-02-01T05:42:05;4.00;60.10
8422;DHT22;4248;48.196;10.924;2023-02-01T05:44:31;4.00;60.20
8422;DHT22;4248;48.196;10.924;2023-02-01T05:46:56;4.00;60.30
8422;DHT22;4248;48.196;10.924;2023-02-01T05:49:22;4.00;60.20
8422;DHT22;4248;48.196;10.924;2023-02-01T05:51:48;4.00;60.30
8422;DHT22;4248;48.196;10.924;2023-02-01T05:54:13;3.90;60.20
8422;DHT22;4248;48.196;10.924;2023-02-01T05:56:39;3.90;60.10
8422;DHT22;4248;48.196;10.924;2023-02-01T05:59:06;3.90;60.20
8422;DHT22;4248;48.196;10.924;2023-02-01T06:01:31;3.90;60.20
8422;DHT22;4248;48.196;10.924;2023-02-01T06:03:57;4.00;60.20
8422;DHT22;4248;48.196;10.924;2023-02-01T06:06:22;4.00;60.20
8422;DHT22;4248;48.196;10.924;2023-02-01T06:08:48;4.00;60.30
8422;DHT22;4248;48.196;10.924;2023-02-01T06:11:13;4.00;60.10
8422;DHT22;4248;48.196;10.924;2023-02-01T06:13:39;4.00;60.00
8422;DHT22;4248;48.196;10.924;2023-02-01T06:16:05;4.00;60.00
8422;DHT22;4248;48.196;10.924;2023-02-01T06:18:33;4.00;60.00
8422;DHT22;4248;48.196;10.924;2023-02-01T06:21:00;4.00;60.00
8422;DHT22;4248;48.196;10.924;2023-02-01T06:23:26;4.00;60.00
8422;DHT22;4248;48.196;10.924;2023-02-01T06:26:05;4.00;59.90
8422;DHT22;4248;48.196;10.924;2023-02-01T06:28:33;4.00;59.90
8422;DHT22;4248;48.196;10.924;2023-02-01T06:31:04;4.00;60.20
8422;DHT22;4248;48.196;10.924;2023-02-01T06:33:32;4.00;60.20
8422;DHT22;4248;48.196;10.924;2023-02-01T06:35:59;4.00;60.20
8422;DHT22;4248;48.196;10.924;2023-02-01T06:38:25;3.90;60.20
8422;DHT22;4248;48.196;10.924;2023-02-01T06:40:55;3.90;60.20
8422;DHT22;4248;48.196;10.924;2023-02-01T06:43:22;3.90;60.10
8422;DHT22;4248;48.196;10.924;2023-02-01T06:45:47;3.90;60.10
8422;DHT22;4248;48.196;10.924;2023-02-01T06:48:13;3.90;60.10
8422;DHT22;4248;48.196;10.924;2023-02-01T06:50:39;3.90;60.20
8422;DHT22;4248;48.196;10.924;2023-02-01T06:53:04;4.00;60.20
8422;DHT22;4248;48.196;10.924;2023-02-01T06:55:30;4.00;60.20
8422;DHT22;4248;48.196;10.924;2023-02-01T06:57:56;4.00;60.10
8422;DHT22;4248;48.196;10.924;2023-02-01T07:00:22;4.00;60.20
8422;DHT22;4248;48.196;10.924;2023-02-01T07:02:48;4.00;60.20
8422;DHT22;4248;48.196;10.924;2023-02-01T07:05:14;4.00;60.20
8422;DHT22;4248;48.196;10.924;2023-02-01T07:07:40;4.00;60.20
8422;DHT22;4248;48.196;10.924;2023-02-01T07:10:06;4.00;60.20
8422;DHT22;4248;48.196;10.924;2023-02-01T07:12:31;4.00;60.20
8422;DHT22;4248;48.196;10.924;2023-02-01T07:14:57;4.10;60.00
8422;DHT22;4248;48.196;10.924;2023-02-01T07:17:23;4.10;60.00
8422;DHT22;4248;48.196;10.924;2023-02-01T07:19:48;4.10;60.00
8422;DHT22;4248;48.196;10.924;2023-02-01T07:22:17;4.20;59.90
8422;DHT22;4248;48.196;10.924;2023-02-01T07:24:43;4.30;59.70
8422;DHT22;4248;48.196;10.924;2023-02-01T07:27:09;4.30;59.60
8422;DHT22;4248;48.196;10.924;2023-02-01T07:29:34;4.30;59.60
8422;DHT22;4248;48.196;10.924;2023-02-01T07:32:00;4.30;59.60
8422;DHT22;4248;48.196;10.924;2023-02-01T07:34:27;4.30;59.50
8422;DHT22;4248;48.196;10.924;2023-02-01T07:36:53;4.30;59.50
8422;DHT22;4248;48.196;10.924;2023-02-01T07:39:19;4.30;59.60
8422;DHT22;4248;48.196;10.924;2023-02-01T07:41:45;4.30;59.40
8422;DHT22;4248;48.196;10.924;2023-02-01T07:44:11;4.30;59.40
8422;DHT22;4248;48.196;10.924;2023-02-01T07:46:36;4.30;59.40
8422;DHT22;4248;48.196;10.924;2023-02-01T07:49:04;4.40;59.40
8422;DHT22;4248;48.196;10.924;2023-02-01T07:51:29;4.40;59.40
8422;DHT22;4248;48.196;10.924;2023-02-01T07:53:55;4.50;59.10
8422;DHT22;4248;48.196;10.924;2023-02-01T07:56:20;4.50;59.00
8422;DHT22;4248;48.196;10.924;2023-02-01T07:58:52;4.50;58.80
8422;DHT22;4248;48.196;10.924;2023-02-01T08:01:21;4.50;58.70
8422;DHT22;4248;48.196;10.924;2023-02-01T08:03:55;4.50;58.80
8422;DHT22;4248;48.196;10.924;2023-02-01T08:06:22;4.60;58.80
8422;DHT22;4248;48.196;10.924;2023-02-01T08:08:49;4.60;58.70
8422;DHT22;4248;48.196;10.924;2023-02-01T08:11:16;4.60;58.70
8422;DHT22;4248;48.196;10.924;2023-02-01T08:13:42;4.60;58.60
8422;DHT22;4248;48.196;10.924;2023-02-01T08:16:09;4.60;58.50
8422;DHT22;4248;48.196;10.924;2023-02-01T08:18:36;4.70;58.30
8422;DHT22;4248;48.196;10.924;2023-02-01T08:21:04;4.70;58.30
8422;DHT22;4248;48.196;10.924;2023-02-01T08:23:30;4.70;58.20
8422;DHT22;4248;48.196;10.924;2023-02-01T08:26:07;4.70;58.30
8422;DHT22;4248;48.196;10.924;2023-02-01T08:28:33;4.70;58.20
8422;DHT22;4248;48.196;10.924;2023-02-01T08:31:02;4.70;58.20
8422;DHT22;4248;48.196;10.924;2023-02-01T08:33:28;4.70;58.10
8422;DHT22;4248;48.196;10.924;2023-02-01T08:35:54;4.80;58.10
8422;DHT22;4248;48.196;10.924;2023-02-01T08:38:19;4.80;57.80
8422;DHT22;4248;48.196;10.924;2023-02-01T08:40:45;4.80;57.70
8422;DHT22;4248;48.196;10.924;2023-02-01T08:43:11;5.00;57.50
8422;DHT22;4248;48.196;10.924;2023-02-01T08:45:37;5.00;57.20
8422;DHT22;4248;48.196;10.924;2023-02-01T08:48:03;5.00;57.20
8422;DHT22;4248;48.196;10.924;2023-02-01T08:50:28;5.00;57.20
8422;DHT22;4248;48.196;10.924;2023-02-01T08:52:54;5.10;57.20
8422;DHT22;4248;48.196;10.924;2023-02-01T08:55:20;5.10;56.90
8422;DHT22;4248;48.196;10.924;2023-02-01T08:57:46;5.20;56.80
8422;DHT22;4248;48.196;10.924;2023-02-01T09:00:14;5.20;56.50
8422;DHT22;4248;48.196;10.924;2023-02-01T09:02:41;5.30;56.40
8422;DHT22;4248;48.196;10.924;2023-02-01T09:05:07;5.30;57.00
8422;DHT22;4248;48.196;10.924;2023-02-01T09:07:33;5.30;56.10
8422;DHT22;4248;48.196;10.924;2023-02-01T09:09:59;5.40;55.90
8422;DHT22;4248;48.196;10.924;2023-02-01T09:12:27;5.50;55.80
8422;DHT22;4248;48.196;10.924;2023-02-01T09:14:55;5.40;55.70
8422;DHT22;4248;48.196;10.924;2023-02-01T09:17:20;5.50;55.80
8422;DHT22;4248;48.196;10.924;2023-02-01T09:19:46;5.60;55.60
8422;DHT22;4248;48.196;10.924;2023-02-01T09:22:11;5.70;55.40
8422;DHT22;4248;48.196;10.924;2023-02-01T09:24:37;5.70;55.20
8422;DHT22;4248;48.196;10.924;2023-02-01T09:27:03;5.70;55.10
8422;DHT22;4248;48.196;10.924;2023-02-01T09:29:29;5.70;55.10
8422;DHT22;4248;48.196;10.924;2023-02-01T09:31:54;5.80;55.10
8422;DHT22;4248;48.196;10.924;2023-02-01T09:34:20;5.90;54.80
8422;DHT22;4248;48.196;10.924;2023-02-01T09:36:45;6.00;54.40
8422;DHT22;4248;48.196;10.924;2023-02-01T09:39:11;6.00;54.10
8422;DHT22;4248;48.196;10.924;2023-02-01T09:46:47;6.00;54.10
8422;DHT22;4248;48.196;10.924;2023-02-01T09:49:18;6.00;54.20
8422;DHT22;4248;48.196;10.924;2023-02-01T09:51:47;6.00;54.20
8422;DHT22;4248;48.196;10.924;2023-02-01T09:54:22;6.00;53.90
8422;DHT22;4248;48.196;10.924;2023-02-01T09:56:53;6.00;54.00
8422;DHT22;4248;48.196;10.924;2023-02-01T09:59:40;6.00;53.80
8422;DHT22;4248;48.196;10.924;2023-02-01T10:02:16;6.10;53.80
8422;DHT22;4248;48.196;10.924;2023-02-01T10:04:43;6.10;53.70
8422;DHT22;4248;48.196;10.924;2023-02-01T10:10:15;6.10;53.80
8422;DHT22;4248;48.196;10.924;2023-02-01T10:16:02;6.10;53.50
8422;DHT22;4248;48.196;10.924;2023-02-01T10:18:54;6.10;53.50
8422;DHT22;4248;48.196;10.924;2023-02-01T10:21:32;6.20;53.40
8422;DHT22;4248;48.196;10.924;2023-02-01T10:24:24;6.30;53.20
8422;DHT22;4248;48.196;10.924;2023-02-01T10:27:02;6.40;52.90
8422;DHT22;4248;48.196;10.924;2023-02-01T10:29:34;6.40;52.70
8422;DHT22;4248;48.196;10.924;2023-02-01T10:32:01;6.40;52.70
8422;DHT22;4248;48.196;10.924;2023-02-01T10:34:31;6.30;52.90
8422;DHT22;4248;48.196;10.924;2023-02-01T10:37:20;6.40;52.70
8422;DHT22;4248;48.196;10.924;2023-02-01T10:39:48;6.50;52.70
8422;DHT22;4248;48.196;10.924;2023-02-01T10:42:24;6.50;52.50
8422;DHT22;4248;48.196;10.924;2023-02-01T10:44:50;6.60;52.20
8422;DHT22;4248;48.196;10.924;2023-02-01T10:47:16;6.70;51.90
8422;DHT22;4248;48.196;10.924;2023-02-01T10:52:36;6.80;51.60
8422;DHT22;4248;48.196;10.924;2023-02-01T10:55:31;6.80;51.60
8422;DHT22;4248;48.196;10.924;2023-02-01T10:58:00;6.70;51.70
8422;DHT22;4248;48.196;10.924;2023-02-01T11:00:27;6.60;51.90
8422;DHT22;4248;48.196;10.924;2023-02-01T11:02:53;6.60;51.80
8422;DHT22;4248;48.196;10.924;2023-02-01T11:05:20;6.60;51.90
8422;DHT22;4248;48.196;10.924;2023-02-01T11:07:53;6.60;51.80
8422;DHT22;4248;48.196;10.924;2023-02-01T11:10:41;6.60;51.70
8422;DHT22;4248;48.196;10.924;2023-02-01T11:13:14;6.50;51.60
8422;DHT22;4248;48.196;10.924;2023-02-01T11:15:46;6.50;51.60
8422;DHT22;4248;48.196;10.924;2023-02-01T11:18:24;6.50;51.60
8422;DHT22;4248;48.196;10.924;2023-02-01T11:20:52;6.50;51.50
8422;DHT22;4248;48.196;10.924;2023-02-01T11:23:22;6.40;51.60
8422;DHT22;4248;48.196;10.924;2023-02-01T11:26:00;6.40;51.70
8422;DHT22;4248;48.196;10.924;2023-02-01T11:28:31;6.30;50.80
8422;DHT22;4248;48.196;10.924;2023-02-01T11:31:01;6.20;51.60
8422;DHT22;4248;48.196;10.924;2023-02-01T11:33:33;6.10;51.70
8422;DHT22;4248;48.196;10.924;2023-02-01T11:36:10;6.10;51.70
8422;DHT22;4248;48.196;10.924;2023-02-01T11:38:37;6.00;51.60
8422;DHT22;4248;48.196;10.924;2023-02-01T11:41:40;6.10;51.40
8422;DHT22;4248;48.196;10.924;2023-02-01T11:44:22;6.00;51.60
8422;DHT22;4248;48.196;10.924;2023-02-01T11:46:49;5.80;51.70
8422;DHT22;4248;48.196;10.924;2023-02-01T11:49:24;5.70;51.90
8422;DHT22;4248;48.196;10.924;2023-02-01T12:08:48;5.80;51.20
8422;DHT22;4248;48.196;10.924;2023-02-01T12:11:46;5.80;51.10
8422;DHT22;4248;48.196;10.924;2023-02-01T12:14:38;5.90;51.10
8422;DHT22;4248;48.196;10.924;2023-02-01T12:23:15;6.00;50.30
8422;DHT22;4248;48.196;10.924;2023-02-01T12:25:57;6.00;50.30
8422;DHT22;4248;48.196;10.924;2023-02-01T12:34:23;6.00;49.30
8422;DHT22;4248;48.196;10.924;2023-02-01T12:37:12;6.10;49.30
8422;DHT22;4248;48.196;10.924;2023-02-01T12:42:43;6.00;50.40
8422;DHT22;4248;48.196;10.924;2023-02-01T12:45:23;6.00;49.30
8422;DHT22;4248;48.196;10.924;2023-02-01T12:47:55;5.90;49.90
8422;DHT22;4248;48.196;10.924;2023-02-01T12:50:27;5.90;50.00
8422;DHT22;4248;48.196;10.924;2023-02-01T12:53:08;5.80;50.30
8422;DHT22;4248;48.196;10.924;2023-02-01T12:55:41;5.80;50.40
8422;DHT22;4248;48.196;10.924;2023-02-01T12:58:24;5.80;50.40
8422;DHT22;4248;48.196;10.924;2023-02-01T13:04:18;5.70;50.80
8422;DHT22;4248;48.196;10.924;2023-02-01T13:06:48;5.60;51.20
8422;DHT22;4248;48.196;10.924;2023-02-01T13:10:01;5.50;51.60
8422;DHT22;4248;48.196;10.924;2023-02-01T13:12:36;5.50;51.70
8422;DHT22;4248;48.196;10.924;2023-02-01T13:15:23;5.50;51.50
8422;DHT22;4248;48.196;10.924;2023-02-01T13:17:51;5.60;51.60
8422;DHT22;4248;48.196;10.924;2023-02-01T13:20:45;5.50;51.60
8422;DHT22;4248;48.196;10.924;2023-02-01T13:23:28;5.50;51.90
8422;DHT22;4248;48.196;10.924;2023-02-01T13:25:55;5.60;51.70
8422;DHT22;4248;48.196;10.924;2023-02-01T13:28:34;5.60;51.50
8422;DHT22;4248;48.196;10.924;2023-02-01T13:33:55;5.70;51.10
8422;DHT22;4248;48.196;10.924;2023-02-01T13:39:36;5.50;51.60
8422;DHT22;4248;48.196;10.924;2023-02-01T13:42:21;5.60;51.50
8422;DHT22;4248;48.196;10.924;2023-02-01T13:44:59;5.60;51.30
8422;DHT22;4248;48.196;10.924;2023-02-01T13:47:49;5.60;51.40
8422;DHT22;4248;48.196;10.924;2023-02-01T13:52:44;5.70;51.30
8422;DHT22;4248;48.196;10.924;2023-02-01T13:57:45;5.70;50.80
8422;DHT22;4248;48.196;10.924;2023-02-01T14:00:25;5.30;52.20
8422;DHT22;4248;48.196;10.924;2023-02-01T14:10:55;5.30;52.90
8422;DHT22;4248;48.196;10.924;2023-02-01T14:13:32;5.50;52.00
8422;DHT22;4248;48.196;10.924;2023-02-01T14:21:31;5.40;52.00
8422;DHT22;4248;48.196;10.924;2023-02-01T14:29:01;5.60;51.30
8422;DHT22;4248;48.196;10.924;2023-02-01T14:32:15;5.70;50.60
8422;DHT22;4248;48.196;10.924;2023-02-01T14:37:06;5.90;49.90
8422;DHT22;4248;48.196;10.924;2023-02-01T14:42:30;5.90;49.50
8422;DHT22;4248;48.196;10.924;2023-02-01T15:01:06;6.10;49.30
8422;DHT22;4248;48.196;10.924;2023-02-01T15:04:10;6.00;49.20
8422;DHT22;4248;48.196;10.924;2023-02-01T15:06:48;6.00;49.20
8422;DHT22;4248;48.196;10.924;2023-02-01T15:09:18;5.90;49.10
8422;DHT22;4248;48.196;10.924;2023-02-01T15:14:31;5.90;49.20
8422;DHT22;4248;48.196;10.924;2023-02-01T15:16:57;5.80;49.10
8422;DHT22;4248;48.196;10.924;2023-02-01T15:19:25;5.70;50.80
8422;DHT22;4248;48.196;10.924;2023-02-01T15:21:54;5.70;49.60
8422;DHT22;4248;48.196;10.924;2023-02-01T15:26:49;5.70;49.70
8422;DHT22;4248;48.196;10.924;2023-02-01T15:29:15;5.50;50.20
8422;DHT22;4248;48.196;10.924;2023-02-01T15:31:46;5.50;50.40
8422;DHT22;4248;48.196;10.924;2023-02-01T15:34:12;5.50;50.30
8422;DHT22;4248;48.196;10.924;2023-02-01T15:36:38;5.50;50.50
8422;DHT22;4248;48.196;10.924;2023-02-01T15:39:14;5.50;50.50
8422;DHT22;4248;48.196;10.924;2023-02-01T15:41:51;5.50;50.60
8422;DHT22;4248;48.196;10.924;2023-02-01T15:47:08;5.30;50.50
8422;DHT22;4248;48.196;10.924;2023-02-01T15:49:39;5.30;50.80
8422;DHT22;4248;48.196;10.924;2023-02-01T15:52:35;5.10;51.00
8422;DHT22;4248;48.196;10.924;2023-02-01T15:55:31;5.00;51.20
8422;DHT22;4248;48.196;10.924;2023-02-01T15:57:51;5.00;51.10
8422;DHT22;4248;48.196;10.924;2023-02-01T16:00:30;5.00;51.10
8422;DHT22;4248;48.196;10.924;2023-02-01T16:03:04;4.90;51.00
8422;DHT22;4248;48.196;10.924;2023-02-01T16:05:41;5.00;51.10
8422;DHT22;4248;48.196;10.924;2023-02-01T16:08:23;5.00;50.90
8422;DHT22;4248;48.196;10.924;2023-02-01T16:10:52;5.00;50.90
8422;DHT22;4248;48.196;10.924;2023-02-01T16:13:19;5.10;50.70
8422;DHT22;4248;48.196;10.924;2023-02-01T16:15:48;5.10;50.80
8422;DHT22;4248;48.196;10.924;2023-02-01T16:18:15;5.10;50.80
8422;DHT22;4248;48.196;10.924;2023-02-01T16:20:42;5.10;50.80
8422;DHT22;4248;48.196;10.924;2023-02-01T16:23:08;5.10;50.90
8422;DHT22;4248;48.196;10.924;2023-02-01T16:25:35;5.10;51.00
8422;DHT22;4248;48.196;10.924;2023-02-01T16:28:01;5.10;50.90
8422;DHT22;4248;48.196;10.924;2023-02-01T16:30:27;5.10;50.90
8422;DHT22;4248;48.196;10.924;2023-02-01T16:32:57;5.20;51.00
8422;DHT22;4248;48.196;10.924;2023-02-01T16:37:53;5.20;50.90
8422;DHT22;4248;48.196;10.924;2023-02-01T16:40:19;5.10;50.80
8422;DHT22;4248;48.196;10.924;2023-02-01T16:42:50;5.20;51.00
8422;DHT22;4248;48.196;10.924;2023-02-01T16:45:16;5.10;51.00
8422;DHT22;4248;48.196;10.924;2023-02-01T16:47:47;5.20;51.10
8422;DHT22;4248;48.196;10.924;2023-02-01T16:50:18;5.20;50.90
8422;DHT22;4248;48.196;10.924;2023-02-01T16:52:45;5.20;50.70
8422;DHT22;4248;48.196;10.924;2023-02-01T16:55:15;5.30;50.70
8422;DHT22;4248;48.196;10.924;2023-02-01T16:57:42;5.30;50.70
8422;DHT22;4248;48.196;10.924;2023-02-01T17:00:09;5.30;50.70
8422;DHT22;4248;48.196;10.924;2023-02-01T17:02:35;5.30;50.60
8422;DHT22;4248;48.196;10.924;2023-02-01T17:05:00;5.30;50.80
8422;DHT22;4248;48.196;10.924;2023-02-01T17:07:26;5.30;50.80
8422;DHT22;4248;48.196;10.924;2023-02-01T17:09:52;5.30;50.60
8422;DHT22;4248;48.196;10.924;2023-02-01T17:12:29;5.30;50.60
8422;DHT22;4248;48.196;10.924;2023-02-01T17:14:56;5.30;50.50
8422;DHT22;4248;48.196;10.924;2023-02-01T17:17:23;5.30;50.50
8422;DHT22;4248;48.196;10.924;2023-02-01T17:19:51;5.30;50.50
8422;DHT22;4248;48.196;10.924;2023-02-01T17:22:19;5.30;50.60
8422;DHT22;4248;48.196;10.924;2023-02-01T17:24:45;5.30;50.60
8422;DHT22;4248;48.196;10.924;2023-02-01T17:27:10;5.30;50.50
8422;DHT22;4248;48.196;10.924;2023-02-01T17:29:36;5.30;50.50
8422;DHT22;4248;48.196;10.924;2023-02-01T17:32:02;5.30;50.50
8422;DHT22;4248;48.196;10.924;2023-02-01T17:34:28;5.30;50.40
8422;DHT22;4248;48.196;10.924;2023-02-01T17:36:54;5.30;50.30
8422;DHT22;4248;48.196;10.924;2023-02-01T17:39:20;5.30;50.10
8422;DHT22;4248;48.196;10.924;2023-02-01T17:42:07;5.30;49.90
8422;DHT22;4248;48.196;10.924;2023-02-01T17:44:33;5.30;49.80
8422;DHT22;4248;48.196;10.924;2023-02-01T17:46:59;5.20;49.40
8422;DHT22;4248;48.196;10.924;2023-02-01T17:49:25;5.20;49.70
8422;DHT22;4248;48.196;10.924;2023-02-01T17:51:53;5.20;49.90
8422;DHT22;4248;48.196;10.924;2023-02-01T17:54:19;5.20;49.70
8422;DHT22;4248;48.196;10.924;2023-02-01T17:56:45;5.30;49.60
8422;DHT22;4248;48.196;10.924;2023-02-01T17:59:13;5.20;49.40
8422;DHT22;4248;48.196;10.924;2023-02-01T18:01:39;5.20;48.90
8422;DHT22;4248;48.196;10.924;2023-02-01T18:04:05;5.10;49.10
8422;DHT22;4248;48.196;10.924;2023-02-01T18:06:33;5.20;49.10
8422;DHT22;4248;48.196;10.924;2023-02-01T18:08:59;5.20;49.10
8422;DHT22;4248;48.196;10.924;2023-02-01T18:11:24;5.20;49.10
8422;DHT22;4248;48.196;10.924;2023-02-01T18:13:51;5.10;49.20
8422;DHT22;4248;48.196;10.924;2023-02-01T18:18:48;5.10;49.00
8422;DHT22;4248;48.196;10.924;2023-02-01T18:21:15;5.10;48.90
8422;DHT22;4248;48.196;10.924;2023-02-01T18:23:42;5.10;48.90
8422;DHT22;4248;48.196;10.924;2023-02-01T18:26:12;5.10;48.90
8422;DHT22;4248;48.196;10.924;2023-02-01T18:28:38;5.10;48.80
8422;DHT22;4248;48.196;10.924;2023-02-01T18:31:04;5.10;48.80
8422;DHT22;4248;48.196;10.924;2023-02-01T18:33:30;5.20;48.70
8422;DHT22;4248;48.196;10.924;2023-02-01T18:35:56;5.20;48.50
8422;DHT22;4248;48.196;10.924;2023-02-01T18:38:22;5.20;48.60